Time;durP1;ratioP1;P1;durP2;ratioP2;P2;SDS_P1;SDS_P2;PMS_P1;PMS_P2;Temp;Humidity;BMP_temperature;BMP_pressure;BME280_temperature;BME280_humidity;BME280_pressure;Samples;Min_cycle;Max_cycle;Signal;HPM_P1;HPM_P2
2023/11/03 00:01:16;;;;;;;5.50;2.20;;;;;;;20.48;51.92;101027.41;107106;1263;25376;-51
2023/11/03 00:03:43;;;;;;;4.30;2.00;;;;;;;20.47;51.87;101028.85;106974;1262;22552;-51
2023/11/03 00:06:10;;;;;;;9.50;2.70;;;;;;;20.47;51.70;101030.08;107002;1257;25347;-51
2023/11/03 00:08:38;;;;;;;4.50;2.30;;;;;;;20.47;51.83;101033.43;107133;1266;25321;-51
2023/11/03 00:11:05;;;;;;;7.10;2.70;;;;;;;20.47;52.06;101029.59;107080;1260;25322;-51
2023/11/03 00:13:33;;;;;;;6.50;2.40;;;;;;;20.47;52.17;101030.47;107124;1257;25537;-53
2023/11/03 00:16:03;;;;;;;5.90;2.50;;;;;;;20.47;52.36;101030.79;107035;1257;25366;-51
2023/11/03 00:18:31;;;;;;;6.30;2.20;;;;;;;20.46;52.08;101034.91;107045;1257;23871;-51
2023/11/03 00:21:00;;;;;;;8.50;3.00;;;;;;;20.45;51.98;101035.50;107145;1264;22532;-51
2023/11/03 00:23:27;;;;;;;7.70;2.20;;;;;;;20.44;52.08;101034.15;107144;1260;25379;-50
2023/11/03 00:25:54;;;;;;;4.80;2.20;;;;;;;20.43;52.13;101029.80;107048;1261;25702;-50
2023/11/03 00:28:23;;;;;;;10.00;2.70;;;;;;;20.44;52.13;101026.95;107082;1260;25283;-51
2023/11/03 00:30:50;;;;;;;4.50;2.40;;;;;;;20.45;52.22;101030.24;106786;1274;25463;-50
2023/11/03 00:33:17;;;;;;;5.90;2.60;;;;;;;20.47;52.32;101025.88;106950;1272;25318;-50
2023/11/03 00:35:44;;;;;;;12.40;2.90;;;;;;;20.49;52.65;101020.84;107071;1256;22558;-50
2023/11/03 00:38:13;;;;;;;7.30;3.30;;;;;;;20.50;52.74;101016.02;107078;1257;25312;-50
2023/11/03 00:40:40;;;;;;;6.50;3.20;;;;;;;20.50;52.70;101017.94;106938;1270;25408;-50
2023/11/03 00:43:07;;;;;;;6.40;2.50;;;;;;;20.50;52.77;101014.05;107175;1264;25513;-50
2023/11/03 00:45:34;;;;;;;11.90;3.20;;;;;;;20.52;52.66;101010.27;106870;1260;25453;-50
2023/11/03 00:48:02;;;;;;;7.20;2.90;;;;;;;20.52;52.74;101008.50;107064;1257;25312;-50
2023/11/03 00:50:29;;;;;;;8.20;2.90;;;;;;;20.53;52.85;101004.70;107094;1264;25399;-50
2023/11/03 00:52:56;;;;;;;13.60;3.60;;;;;;;20.53;52.95;101002.95;107110;1254;25322;-50
2023/11/03 00:55:23;;;;;;;9.70;3.60;;;;;;;20.54;53.12;101004.10;107105;1254;25350;-50
2023/11/03 00:57:50;;;;;;;9.50;3.20;;;;;;;20.53;53.14;101002.05;107153;1270;25481;-49
2023/11/03 01:00:17;;;;;;;8.40;3.00;;;;;;;20.53;53.16;101000.50;107098;1264;24273;-52
2023/11/03 01:02:44;;;;;;;10.50;3.80;;;;;;;20.53;53.25;100999.23;106955;1257;25423;-49
2023/11/03 01:05:14;;;;;;;9.70;2.80;;;;;;;20.54;53.34;100998.31;107087;1257;25318;-52
2023/11/03 01:07:42;;;;;;;6.30;3.00;;;;;;;20.55;53.33;101007.06;107084;1258;22523;-49
2023/11/03 01:10:15;;;;;;;5.90;2.40;;;;;;;20.55;53.32;101010.21;106787;1267;25312;-51
2023/11/03 01:12:49;;;;;;;5.50;3.10;;;;;;;20.57;53.29;101009.96;107129;1252;25389;-51
2023/11/03 01:15:19;;;;;;;7.30;2.70;;;;;;;20.57;53.31;101006.93;107014;1257;25337;-51
2023/11/03 01:17:50;;;;;;;10.50;4.10;;;;;;;20.57;53.40;101007.31;107136;1257;25471;-51
2023/11/03 01:20:27;;;;;;;12.40;4.10;;;;;;;20.55;53.45;101004.58;106915;1266;26490;-51
2023/11/03 01:22:54;;;;;;;9.90;2.90;;;;;;;20.55;53.70;100995.42;107096;1270;22826;-51
2023/11/03 01:25:21;;;;;;;7.00;3.10;;;;;;;20.56;53.83;100990.24;107153;1257;22521;-51
2023/11/03 01:27:50;;;;;;;8.40;3.20;;;;;;;20.57;53.69;100988.63;106870;1267;24241;-51
2023/11/03 01:30:17;;;;;;;7.00;3.00;;;;;;;20.56;53.58;100982.13;107049;1267;25405;-51
2023/11/03 01:32:53;;;;;;;6.30;2.80;;;;;;;20.56;53.64;100979.67;106852;1258;25364;-53
2023/11/03 01:35:21;;;;;;;6.30;3.20;;;;;;;20.55;53.78;100974.96;107088;1256;25389;-50
2023/11/03 01:37:47;;;;;;;8.20;3.00;;;;;;;20.56;53.79;100979.01;107085;1261;24199;-52
2023/11/03 01:40:14;;;;;;;6.20;3.00;;;;;;;20.55;53.75;100982.04;106804;1260;25337;-52
2023/11/03 01:42:42;;;;;;;6.10;3.00;;;;;;;20.55;53.67;100986.66;106834;1254;22530;-52
2023/11/03 01:45:10;;;;;;;12.40;3.60;;;;;;;20.54;53.71;100988.07;107093;1264;22523;-51
2023/11/03 01:47:37;;;;;;;6.90;3.50;;;;;;;20.53;53.62;100985.33;106976;1256;25377;-52
2023/11/03 01:50:05;;;;;;;6.50;3.10;;;;;;;20.53;53.84;100989.01;106843;1261;25331;-52
2023/11/03 01:52:35;;;;;;;10.00;3.50;;;;;;;20.54;53.91;100988.64;106847;1260;25319;-50
2023/11/03 01:55:02;;;;;;;11.70;3.80;;;;;;;20.56;54.01;100988.33;107089;1263;25322;-50
2023/11/03 01:57:30;;;;;;;8.10;3.60;;;;;;;20.57;54.11;100985.97;107088;1256;25509;-50
2023/11/03 01:59:57;;;;;;;7.60;3.00;;;;;;;20.57;54.02;100985.10;106962;1263;25449;-50
2023/11/03 02:02:24;;;;;;;5.90;2.80;;;;;;;20.57;53.95;100983.33;107050;1254;25322;-51
2023/11/03 02:04:51;;;;;;;8.00;3.30;;;;;;;20.57;54.04;100980.02;106985;1254;24228;-50
2023/11/03 02:07:18;;;;;;;8.90;3.40;;;;;;;20.57;54.01;100978.02;107050;1260;25313;-50
2023/11/03 02:09:45;;;;;;;9.60;3.30;;;;;;;20.58;54.12;100979.73;106913;1257;25432;-50
2023/11/03 02:12:14;;;;;;;9.90;3.50;;;;;;;20.59;54.13;100977.54;107102;1251;25356;-50
2023/11/03 02:14:40;;;;;;;7.10;3.00;;;;;;;20.59;54.14;100978.97;107029;1257;25395;-50
2023/11/03 02:17:07;;;;;;;15.40;5.10;;;;;;;20.58;54.06;100982.89;106838;1261;25327;-50
2023/11/03 02:19:34;;;;;;;8.50;3.50;;;;;;;20.57;54.11;100991.08;106937;1264;25407;-50
2023/11/03 02:22:02;;;;;;;6.10;3.20;;;;;;;20.56;54.27;100995.91;107073;1254;25331;-50
2023/11/03 02:24:29;;;;;;;10.60;3.60;;;;;;;20.54;54.36;100997.77;106835;1260;25780;-50
2023/11/03 02:26:56;;;;;;;8.30;3.10;;;;;;;20.54;54.46;101003.59;107117;1261;25312;-50
2023/11/03 02:29:23;;;;;;;8.30;3.20;;;;;;;20.53;54.44;101003.81;107076;1257;25399;-50
2023/11/03 02:31:50;;;;;;;9.50;4.00;;;;;;;20.53;54.42;100998.55;106739;1267;25337;-50
2023/11/03 02:34:17;;;;;;;6.20;3.10;;;;;;;20.53;54.56;100995.00;107075;1256;25311;-50
2023/11/03 02:36:45;;;;;;;9.20;3.30;;;;;;;20.53;54.61;100994.84;106795;1261;25395;-50
2023/11/03 02:39:12;;;;;;;7.20;3.20;;;;;;;20.53;54.71;100998.94;107058;1257;25347;-52
2023/11/03 02:41:39;;;;;;;13.40;3.80;;;;;;;20.52;54.63;100995.24;107098;1256;25360;-50
2023/11/03 02:44:06;;;;;;;8.30;3.30;;;;;;;20.52;54.67;100995.95;107054;1257;23230;-50
2023/11/03 02:46:33;;;;;;;9.30;3.30;;;;;;;20.51;54.62;100993.91;107016;1263;25321;-50
2023/11/03 02:49:00;;;;;;;7.20;3.80;;;;;;;20.50;54.71;100995.20;106991;1264;25334;-52
2023/11/03 02:51:27;;;;;;;9.20;4.50;;;;;;;20.51;54.82;100997.80;107076;1263;25516;-52
2023/11/03 02:53:54;;;;;;;8.90;4.00;;;;;;;20.51;54.73;100993.18;106040;1263;1003326;-52
2023/11/03 02:56:25;;;;;;;8.40;3.40;;;;;;;20.51;54.71;100989.86;106897;1260;25322;-52
2023/11/03 02:58:52;;;;;;;7.00;3.00;;;;;;;20.50;54.68;100989.58;106865;1261;25413;-49
2023/11/03 03:01:29;;;;;;;9.20;3.70;;;;;;;20.49;54.58;100987.17;107140;1262;23213;-51
2023/11/03 03:03:57;;;;;;;12.00;3.20;;;;;;;20.48;54.61;100989.85;107039;1260;22598;-52
2023/11/03 03:06:24;;;;;;;11.40;3.70;;;;;;;20.48;54.60;100987.09;106983;1264;25321;-52
2023/11/03 03:08:51;;;;;;;8.30;3.60;;;;;;;20.45;54.70;100992.49;107133;1257;24367;-51
2023/11/03 03:11:18;;;;;;;8.20;3.40;;;;;;;20.43;54.72;100989.13;106939;1263;25348;-51
2023/11/03 03:13:45;;;;;;;6.90;3.10;;;;;;;20.40;54.78;100985.23;106872;1261;25321;-51
2023/11/03 03:16:16;;;;;;;8.40;3.30;;;;;;;20.39;54.88;100982.84;106784;1254;25481;-51
2023/11/03 03:18:43;;;;;;;9.70;3.70;;;;;;;20.38;54.98;100987.83;106800;1263;22646;-51
2023/11/03 03:21:10;;;;;;;11.10;5.40;;;;;;;20.38;55.03;100990.08;106839;1256;25332;-51
2023/11/03 03:23:37;;;;;;;9.70;4.10;;;;;;;20.39;55.00;100987.23;107012;1267;25321;-50
2023/11/03 03:26:04;;;;;;;9.60;4.70;;;;;;;20.37;55.04;100984.86;107118;1256;23362;-50
2023/11/03 03:28:31;;;;;;;11.20;4.60;;;;;;;20.37;55.11;100979.42;107110;1266;22566;-52
2023/11/03 03:30:59;;;;;;;7.50;4.10;;;;;;;20.37;55.07;100977.33;107090;1263;25347;-51
2023/11/03 03:33:27;;;;;;;9.40;4.60;;;;;;;20.37;55.10;100971.81;107092;1254;25478;-50
2023/11/03 03:35:54;;;;;;;7.70;4.10;;;;;;;20.35;54.89;100964.17;106880;1251;22530;-51
2023/11/03 03:38:21;;;;;;;6.50;3.90;;;;;;;20.34;55.18;100952.63;106774;1257;25398;-50
2023/11/03 03:40:48;;;;;;;6.10;4.50;;;;;;;20.34;55.09;100943.85;106968;1251;25322;-49
2023/11/03 03:43:15;;;;;;;12.30;4.40;;;;;;;20.31;55.18;100936.25;106859;1256;24309;-52
2023/11/03 03:45:44;;;;;;;12.40;4.60;;;;;;;20.27;55.22;100932.41;106750;1261;25486;-50
2023/11/03 03:48:11;;;;;;;10.20;4.20;;;;;;;20.23;55.44;100931.06;106841;1251;22555;-50
2023/11/03 03:50:38;;;;;;;9.30;4.90;;;;;;;20.20;55.61;100932.86;107154;1266;25312;-51
2023/11/03 03:53:05;;;;;;;7.20;4.60;;;;;;;20.16;55.70;100935.37;107068;1254;22631;-51
2023/11/03 03:55:32;;;;;;;12.70;4.80;;;;;;;20.11;55.77;100939.66;107045;1258;25426;-51
2023/11/03 03:57:59;;;;;;;10.60;4.60;;;;;;;20.09;55.92;100943.89;106757;1264;22655;-51
2023/11/03 04:00:26;;;;;;;10.30;4.40;;;;;;;20.06;56.10;100940.73;107056;1251;25479;-50
2023/11/03 04:02:53;;;;;;;9.60;4.60;;;;;;;20.03;56.18;100937.70;107156;1266;25360;-51
2023/11/03 04:05:20;;;;;;;7.10;5.10;;;;;;;20.01;56.27;100933.94;107101;1251;25384;-51
2023/11/03 04:07:47;;;;;;;9.30;4.30;;;;;;;20.00;56.27;100937.16;107067;1251;25344;-52
2023/11/03 04:10:14;;;;;;;10.80;5.00;;;;;;;20.00;56.39;100938.75;107068;1257;25460;-51
2023/11/03 04:12:41;;;;;;;7.10;4.40;;;;;;;19.99;56.30;100940.41;107194;1257;25331;-51
2023/11/03 04:15:09;;;;;;;8.40;4.40;;;;;;;19.97;56.41;100937.38;107082;1257;25370;-51
2023/11/03 04:17:36;;;;;;;16.10;5.10;;;;;;;19.97;56.41;100931.91;106906;1267;25510;-51
2023/11/03 04:20:04;;;;;;;8.20;3.80;;;;;;;19.96;56.54;100932.30;107060;1257;25359;-51
2023/11/03 04:22:32;;;;;;;8.90;4.50;;;;;;;19.96;56.68;100935.65;106949;1260;22530;-51
2023/11/03 04:24:59;;;;;;;8.10;3.80;;;;;;;19.96;56.69;100940.77;107069;1260;25477;-50
2023/11/03 04:27:26;;;;;;;17.10;5.20;;;;;;;19.96;56.82;100939.36;107069;1261;25341;-51
2023/11/03 04:29:53;;;;;;;10.60;4.30;;;;;;;19.97;56.83;100941.05;107062;1254;23309;-51
2023/11/03 04:32:20;;;;;;;8.40;4.60;;;;;;;19.98;56.76;100950.52;106815;1264;25332;-51
2023/11/03 04:34:47;;;;;;;10.80;5.10;;;;;;;19.97;56.84;100960.94;107124;1251;25341;-50
2023/11/03 04:37:14;;;;;;;11.30;4.40;;;;;;;19.98;56.74;100967.75;107196;1251;24256;-50
2023/11/03 04:39:41;;;;;;;14.10;5.00;;;;;;;20.00;56.75;100969.94;107099;1257;23890;-51
2023/11/03 04:42:08;;;;;;;8.30;4.50;;;;;;;20.02;56.55;100971.04;106863;1259;22523;-52
2023/11/03 04:44:35;;;;;;;7.60;4.60;;;;;;;20.03;56.57;100968.34;107130;1264;23121;-51
2023/11/03 04:47:02;;;;;;;10.10;4.70;;;;;;;20.05;56.31;100963.13;107037;1256;25340;-51
2023/11/03 04:49:30;;;;;;;7.30;4.00;;;;;;;20.06;56.28;100957.59;107082;1254;25478;-51
2023/11/03 04:51:57;;;;;;;7.80;4.70;;;;;;;20.08;56.33;100956.09;104778;1255;1003446;-52
2023/11/03 04:54:24;;;;;;;9.10;4.10;;;;;;;20.08;56.44;100953.76;107201;1254;25408;-51
2023/11/03 04:56:51;;;;;;;6.40;4.70;;;;;;;20.10;56.29;100951.89;107064;1254;25322;-51
2023/11/03 04:59:19;;;;;;;10.20;4.30;;;;;;;20.10;56.21;100952.61;106765;1270;25398;-52
2023/11/03 05:01:47;;;;;;;8.90;4.30;;;;;;;20.11;56.16;100947.65;106988;1256;24375;-51
2023/11/03 05:04:14;;;;;;;14.10;4.80;;;;;;;20.11;56.17;100945.00;106922;1259;22559;-50
2023/11/03 05:06:41;;;;;;;6.30;4.20;;;;;;;20.10;56.04;100939.91;106801;1255;25331;-50
2023/11/03 05:09:09;;;;;;;8.30;4.30;;;;;;;20.09;56.12;100941.95;106842;1257;25471;-50
2023/11/03 05:11:36;;;;;;;8.90;4.90;;;;;;;20.08;56.10;100949.39;106861;1261;25321;-50
2023/11/03 05:14:03;;;;;;;8.10;5.00;;;;;;;20.09;56.12;100948.83;107054;1264;23308;-51
2023/11/03 05:16:30;;;;;;;15.10;4.90;;;;;;;20.10;56.21;100950.88;107067;1254;25331;-54
2023/11/03 05:18:57;;;;;;;7.30;4.50;;;;;;;20.12;56.33;100959.54;107072;1256;25477;-50
2023/11/03 05:21:25;;;;;;;7.80;4.70;;;;;;;20.13;56.22;100958.81;106884;1267;25491;-51
2023/11/03 05:23:51;;;;;;;8.80;5.20;;;;;;;20.15;56.27;100955.52;107147;1257;25378;-50
2023/11/03 05:26:19;;;;;;;9.90;5.20;;;;;;;20.15;56.23;100953.52;106998;1264;25331;-50
2023/11/03 05:28:46;;;;;;;11.50;5.70;;;;;;;20.16;56.20;100952.80;106960;1255;25337;-50
2023/11/03 05:31:13;;;;;;;8.20;5.20;;;;;;;20.17;56.08;100952.58;106983;1257;24371;-51
2023/11/03 05:33:40;;;;;;;7.80;5.10;;;;;;;20.18;56.21;100961.28;107114;1256;25330;-51
2023/11/03 05:36:11;;;;;;;9.00;5.30;;;;;;;20.20;56.31;100959.27;106875;1266;25321;-51
2023/11/03 05:38:38;;;;;;;7.90;5.00;;;;;;;20.24;56.32;100962.35;106845;1257;25702;-52
2023/11/03 05:41:06;;;;;;;7.90;5.00;;;;;;;20.28;56.11;100958.82;106925;1267;24204;-51
2023/11/03 05:43:33;;;;;;;10.20;5.00;;;;;;;20.29;56.04;100956.27;107191;1257;23264;-53
2023/11/03 05:46:00;;;;;;;7.80;5.20;;;;;;;20.31;56.07;100952.11;107161;1257;23867;-51
2023/11/03 05:48:27;;;;;;;7.30;5.00;;;;;;;20.35;56.13;100951.01;106856;1254;25372;-52
2023/11/03 05:50:56;;;;;;;9.40;4.70;;;;;;;20.38;56.12;100949.38;107067;1263;23865;-50
2023/11/03 05:53:23;;;;;;;8.20;5.00;;;;;;;20.42;56.10;100948.64;107115;1263;25399;-50
2023/11/03 05:55:50;;;;;;;10.00;5.00;;;;;;;20.45;55.97;100943.50;105665;1264;1003260;-50
2023/11/03 05:58:17;;;;;;;9.50;4.70;;;;;;;20.48;55.94;100940.34;107069;1256;25331;-51
2023/11/03 06:00:44;;;;;;;9.50;4.60;;;;;;;20.52;55.83;100935.19;107187;1264;25331;-50
2023/11/03 06:03:11;;;;;;;8.40;5.20;;;;;;;20.53;55.79;100931.38;107090;1256;25417;-51
2023/11/03 06:05:38;;;;;;;8.10;4.60;;;;;;;20.55;55.82;100929.88;107093;1266;25507;-50
2023/11/03 06:08:05;;;;;;;7.90;4.50;;;;;;;20.54;55.84;100935.38;106851;1263;24261;-50
2023/11/03 06:10:32;;;;;;;9.70;5.40;;;;;;;20.56;55.79;100940.54;106924;1265;25408;-51
2023/11/03 06:12:59;;;;;;;20.00;7.00;;;;;;;20.57;55.81;100947.88;107174;1257;25481;-50
2023/11/03 06:15:26;;;;;;;9.50;5.30;;;;;;;20.60;55.82;100955.11;107046;1257;25519;-50
2023/11/03 06:17:53;;;;;;;8.10;5.50;;;;;;;20.64;55.81;100959.45;106903;1257;25359;-51
2023/11/03 06:20:20;;;;;;;7.90;5.00;;;;;;;20.69;55.79;100956.52;107062;1260;25584;-52
2023/11/03 06:22:47;;;;;;;10.00;5.70;;;;;;;20.72;55.62;100949.61;107072;1257;25344;-51
2023/11/03 06:25:14;;;;;;;9.70;4.80;;;;;;;20.77;55.61;100940.70;107098;1257;23459;-51
2023/11/03 06:27:41;;;;;;;12.90;5.60;;;;;;;20.81;55.42;100935.46;107114;1260;24203;-50
2023/11/03 06:30:08;;;;;;;6.60;4.90;;;;;;;20.84;55.38;100928.81;106851;1257;26496;-50
2023/11/03 06:32:36;;;;;;;8.80;5.20;;;;;;;20.86;55.51;100918.81;107113;1251;25332;-50
2023/11/03 06:35:03;;;;;;;7.00;5.20;;;;;;;20.88;55.38;100918.48;107135;1255;25466;-50
2023/11/03 06:37:31;;;;;;;10.20;5.30;;;;;;;20.92;55.41;100915.80;106783;1256;22639;-52
2023/11/03 06:40:02;;;;;;;7.00;4.50;;;;;;;20.95;55.32;100913.42;107170;1251;25347;-50
2023/11/03 06:42:29;;;;;;;11.20;4.90;;;;;;;20.99;55.08;100910.73;107203;1254;22605;-50
2023/11/03 06:44:56;;;;;;;10.50;4.70;;;;;;;21.02;54.98;100917.07;106884;1267;25399;-51
2023/11/03 06:47:23;;;;;;;9.60;4.30;;;;;;;21.05;55.17;100913.35;106965;1254;25321;-51
2023/11/03 06:49:50;;;;;;;9.50;4.80;;;;;;;21.11;54.80;100920.29;107040;1254;25331;-50
2023/11/03 06:52:17;;;;;;;8.30;4.60;;;;;;;21.13;54.71;100920.33;106860;1260;22544;-51
2023/11/03 06:54:45;;;;;;;9.00;4.80;;;;;;;21.15;54.80;100914.38;107158;1254;25341;-50
2023/11/03 06:57:12;;;;;;;9.10;4.20;;;;;;;21.19;54.82;100911.15;107113;1253;25468;-50
2023/11/03 06:59:38;;;;;;;12.10;4.80;;;;;;;21.22;54.70;100900.52;107117;1257;25359;-50
2023/11/03 07:02:05;;;;;;;9.30;4.00;;;;;;;21.25;54.51;100893.23;106998;1257;25366;-50
2023/11/03 07:04:33;;;;;;;9.90;4.60;;;;;;;21.28;54.57;100884.44;106893;1256;25341;-51
2023/11/03 07:07:01;;;;;;;10.40;4.30;;;;;;;21.28;54.60;100874.38;107199;1264;23280;-50
2023/11/03 07:09:30;;;;;;;7.10;4.60;;;;;;;21.30;54.58;100874.58;107073;1260;23897;-51
2023/11/03 07:11:57;;;;;;;7.30;4.40;;;;;;;21.34;54.57;100876.10;107164;1266;25332;-50
2023/11/03 07:14:24;;;;;;;8.70;4.60;;;;;;;21.37;54.47;100878.89;106756;1271;25449;-51
2023/11/03 07:16:52;;;;;;;6.70;4.30;;;;;;;21.41;54.22;100881.30;107111;1256;25443;-50
2023/11/03 07:19:20;;;;;;;11.10;4.40;;;;;;;21.42;54.18;100889.54;106409;1253;1003573;-50
2023/11/03 07:21:51;;;;;;;8.80;3.80;;;;;;;21.41;54.22;100893.59;106827;1259;24493;-52
2023/11/03 07:24:19;;;;;;;10.00;4.50;;;;;;;21.43;54.22;100901.10;107070;1263;25305;-51
2023/11/03 07:26:46;;;;;;;6.30;4.10;;;;;;;21.43;54.35;100904.59;107185;1264;25357;-51
2023/11/03 07:29:14;;;;;;;8.00;4.30;;;;;;;21.48;54.40;100906.25;107194;1251;25397;-51
2023/11/03 07:31:41;;;;;;;9.10;5.00;;;;;;;21.53;54.33;100908.70;107060;1260;25350;-51
2023/11/03 07:34:12;;;;;;;7.80;4.40;;;;;;;21.58;53.91;100916.36;106884;1254;25557;-51
2023/11/03 07:36:39;;;;;;;13.70;4.80;;;;;;;21.61;53.83;100919.15;107126;1250;22569;-51
2023/11/03 07:39:06;;;;;;;9.20;4.80;;;;;;;21.63;53.71;100921.29;107007;1251;25331;-50
2023/11/03 07:41:36;;;;;;;7.70;4.10;;;;;;;21.65;53.76;100927.52;106879;1266;25359;-51
2023/11/03 07:44:03;;;;;;;9.80;4.40;;;;;;;21.68;53.60;100931.77;106813;1257;25401;-51
2023/11/03 07:46:31;;;;;;;7.50;4.10;;;;;;;21.70;53.50;100930.59;107173;1254;25321;-51
2023/11/03 07:48:57;;;;;;;5.80;3.50;;;;;;;21.72;53.63;100923.55;107156;1251;25395;-51
2023/11/03 07:51:25;;;;;;;10.40;4.20;;;;;;;21.75;53.44;100926.36;106829;1263;25472;-51
2023/11/03 07:53:53;;;;;;;6.60;4.20;;;;;;;21.77;53.34;100923.38;106858;1260;23164;-51
2023/11/03 07:56:24;;;;;;;7.80;3.60;;;;;;;21.79;53.26;100922.35;107098;1254;22547;-52
2023/11/03 07:59:03;;;;;;;6.60;4.10;;;;;;;21.82;53.42;100919.02;106832;1257;25322;-51
2023/11/03 08:01:30;;;;;;;8.90;3.60;;;;;;;21.86;53.13;100912.92;107055;1256;25551;-51
2023/11/03 08:03:57;;;;;;;9.20;4.60;;;;;;;21.90;53.18;100915.34;107076;1254;25369;-51
2023/11/03 08:06:24;;;;;;;6.40;3.20;;;;;;;21.94;52.92;100916.66;107183;1254;25439;-51
2023/11/03 08:08:51;;;;;;;7.70;3.60;;;;;;;21.98;52.90;100917.27;107144;1257;25380;-50
2023/11/03 08:11:18;;;;;;;6.70;4.40;;;;;;;22.03;52.90;100918.00;106934;1256;24243;-49
2023/11/03 08:13:47;;;;;;;6.70;3.80;;;;;;;22.07;52.71;100916.30;106887;1257;25398;-49
2023/11/03 08:16:14;;;;;;;6.80;3.20;;;;;;;22.11;52.79;100911.27;107137;1257;25434;-50
2023/11/03 08:18:42;;;;;;;11.50;3.80;;;;;;;22.16;52.80;100910.76;107112;1256;25329;-50
2023/11/03 08:21:09;;;;;;;5.90;3.30;;;;;;;22.20;52.41;100902.34;107133;1256;25110;-51
2023/11/03 08:23:35;;;;;;;9.00;3.50;;;;;;;22.24;52.17;100894.80;106880;1253;22998;-49
2023/11/03 08:26:03;;;;;;;5.00;3.40;;;;;;;22.27;51.89;100892.10;107122;1266;25350;-50
2023/11/03 08:28:32;;;;;;;7.00;2.90;;;;;;;22.29;51.46;100890.02;106839;1257;22520;-49
2023/11/03 08:30:59;;;;;;;5.70;3.10;;;;;;;22.31;51.43;100881.73;107102;1266;25401;-50
2023/11/03 08:33:26;;;;;;;6.70;3.70;;;;;;;22.33;51.56;100876.70;107124;1254;25337;-50
2023/11/03 08:35:55;;;;;;;6.80;3.80;;;;;;;22.34;51.77;100877.14;106769;1274;25462;-53
2023/11/03 08:38:21;;;;;;;6.40;3.50;;;;;;;22.38;51.93;100880.60;106917;1251;24217;-49
2023/11/03 08:40:49;;;;;;;7.20;3.40;;;;;;;22.41;51.94;100881.45;106690;1258;25478;-49
2023/11/03 08:43:19;;;;;;;9.60;3.70;;;;;;;22.43;51.81;100879.67;106779;1254;22533;-50
2023/11/03 08:45:46;;;;;;;8.80;3.90;;;;;;;22.46;51.59;100881.42;106752;1257;25359;-51
2023/11/03 08:48:13;;;;;;;7.40;4.00;;;;;;;22.46;51.56;100883.70;106815;1270;22519;-51
2023/11/03 08:50:40;;;;;;;4.70;3.80;;;;;;;22.47;51.77;100884.55;106792;1256;25359;-49
2023/11/03 08:53:07;;;;;;;10.20;4.40;;;;;;;22.49;51.87;100887.06;106810;1264;25360;-49
2023/11/03 08:55:35;;;;;;;8.00;3.70;;;;;;;22.53;51.73;100891.22;106885;1269;25360;-49
2023/11/03 08:58:02;;;;;;;5.80;3.90;;;;;;;22.56;51.56;100899.64;107058;1266;25396;-49
2023/11/03 09:00:29;;;;;;;8.20;4.10;;;;;;;22.58;51.55;100899.56;107095;1270;25341;-49
2023/11/03 09:02:56;;;;;;;10.10;4.40;;;;;;;22.59;51.61;100904.03;107125;1257;24267;-50
2023/11/03 09:05:24;;;;;;;5.00;3.50;;;;;;;22.60;51.49;100909.13;106768;1255;25468;-49
2023/11/03 09:07:51;;;;;;;7.90;3.90;;;;;;;22.60;51.34;100911.96;106970;1267;25353;-49
2023/11/03 09:10:18;;;;;;;7.80;4.10;;;;;;;22.59;51.35;100905.30;107104;1257;25434;-50
2023/11/03 09:12:47;;;;;;;7.40;3.90;;;;;;;22.57;51.50;100900.84;106907;1259;25360;-50
2023/11/03 09:15:15;;;;;;;7.10;4.40;;;;;;;22.57;51.49;100910.54;107047;1267;25350;-50
2023/11/03 09:17:45;;;;;;;6.00;4.00;;;;;;;22.57;51.40;100910.02;106738;1274;25359;-50
2023/11/03 09:20:14;;;;;;;8.90;4.00;;;;;;;22.57;51.35;100909.65;107045;1254;25347;-50
2023/11/03 09:22:41;;;;;;;5.70;3.40;;;;;;;22.60;51.27;100915.15;106843;1269;25411;-49
2023/11/03 09:25:09;;;;;;;6.40;4.30;;;;;;;22.63;51.20;100916.16;107094;1269;25449;-49
2023/11/03 09:27:38;;;;;;;4.60;3.40;;;;;;;22.64;51.25;100904.59;106867;1269;25386;-49
2023/11/03 09:30:11;;;;;;;7.50;3.80;;;;;;;22.68;51.24;100895.85;107119;1266;25399;-49
2023/11/03 09:32:40;;;;;;;7.60;3.50;;;;;;;22.74;51.08;100897.60;106772;1270;24478;-50
2023/11/03 09:35:09;;;;;;;6.50;3.90;;;;;;;22.78;51.00;100881.02;106923;1269;25345;-52
2023/11/03 09:37:36;;;;;;;8.20;4.30;;;;;;;22.80;51.12;100866.58;106916;1274;22694;-52
2023/11/03 09:40:06;;;;;;;4.80;3.20;;;;;;;22.80;51.13;100853.25;106742;1274;295973;-49
2023/11/03 09:42:35;;;;;;;7.60;3.70;;;;;;;22.82;51.03;100834.74;106862;1269;25356;-50
2023/11/03 09:45:09;;;;;;;9.00;3.80;;;;;;;22.84;50.78;100814.98;106874;1266;22527;-49
2023/11/03 09:47:39;;;;;;;7.30;4.10;;;;;;;22.85;50.87;100801.25;106681;1275;24235;-49
2023/11/03 09:50:10;;;;;;;6.80;3.50;;;;;;;22.91;50.55;100792.37;106890;1272;24267;-50
2023/11/03 09:52:38;;;;;;;6.20;3.90;;;;;;;22.91;50.22;100789.50;106890;1272;22531;-49
2023/11/03 09:55:06;;;;;;;8.50;4.20;;;;;;;22.89;50.30;100786.46;107092;1266;25426;-49
2023/11/03 09:57:33;;;;;;;5.70;3.50;;;;;;;22.85;50.51;100784.08;107051;1254;25360;-49
2023/11/03 10:00:05;;;;;;;7.30;4.20;;;;;;;22.81;50.55;100769.02;106912;1269;25359;-49
2023/11/03 10:02:38;;;;;;;7.90;3.90;;;;;;;22.78;50.49;100758.06;107133;1254;25349;-50
2023/11/03 10:05:08;;;;;;;7.60;4.30;;;;;;;22.71;50.48;100763.04;106851;1267;25324;-50
2023/11/03 10:07:35;;;;;;;5.80;4.10;;;;;;;22.62;50.44;100782.73;107190;1269;25485;-50
2023/11/03 10:10:03;;;;;;;6.50;4.30;;;;;;;22.57;50.64;100793.55;107047;1267;25376;-50
2023/11/03 10:12:30;;;;;;;6.20;4.50;;;;;;;22.54;50.83;100800.64;106745;1267;24280;-50
2023/11/03 10:14:56;;;;;;;5.30;3.80;;;;;;;22.49;51.00;100798.83;107055;1272;24275;-49
2023/11/03 10:17:24;;;;;;;7.30;3.90;;;;;;;22.47;51.17;100796.17;107074;1254;25395;-49
2023/11/03 10:19:51;;;;;;;6.00;3.80;;;;;;;22.46;51.10;100804.31;107110;1256;22653;-49
2023/11/03 10:22:18;;;;;;;7.00;3.90;;;;;;;22.46;51.18;100808.04;106951;1267;25392;-49
2023/11/03 10:24:46;;;;;;;4.50;4.10;;;;;;;22.46;50.96;100806.14;106765;1274;22570;-51
2023/11/03 10:27:14;;;;;;;5.10;4.10;;;;;;;22.43;51.10;100804.55;107060;1270;22523;-49
2023/11/03 10:29:42;;;;;;;5.50;3.80;;;;;;;22.41;51.27;100805.38;106881;1271;25374;-49
2023/11/03 10:32:09;;;;;;;5.10;3.60;;;;;;;22.38;51.43;100807.04;107074;1254;25402;-50
2023/11/03 10:34:37;;;;;;;6.20;4.00;;;;;;;22.35;51.50;100803.20;106836;1267;22562;-51
2023/11/03 10:37:05;;;;;;;5.90;3.50;;;;;;;22.32;51.52;100803.96;106818;1266;25790;-50
2023/11/03 10:39:32;;;;;;;6.50;3.30;;;;;;;22.25;51.82;100804.45;106596;1274;25359;-50
2023/11/03 10:41:59;;;;;;;8.50;4.60;;;;;;;22.22;52.04;100801.33;106526;1269;22542;-50
2023/11/03 10:44:27;;;;;;;8.00;3.90;;;;;;;22.21;52.18;100789.73;106495;1272;25341;-50
2023/11/03 10:46:58;;;;;;;4.90;4.00;;;;;;;22.19;52.07;100786.81;106414;1259;25370;-52
2023/11/03 10:49:30;;;;;;;6.60;3.70;;;;;;;22.16;52.07;100788.98;106834;1269;24254;-52
2023/11/03 10:52:13;;;;;;;8.10;4.20;;;;;;;22.12;52.12;100783.27;106759;1269;24468;-52
2023/11/03 10:55:06;;;;;;;11.50;3.80;;;;;;;22.10;52.40;100785.89;106840;1265;25379;-51
2023/11/03 10:57:34;;;;;;;11.60;4.20;;;;;;;22.09;52.56;100779.91;106828;1258;25485;-52
2023/11/03 11:00:17;;;;;;;7.80;4.10;;;;;;;22.08;52.41;100782.96;106736;1274;22579;-51
2023/11/03 11:03:21;;;;;;;9.60;4.30;;;;;;;22.06;52.36;100786.86;106737;1273;22523;-51
2023/11/03 11:06:12;;;;;;;6.30;4.40;;;;;;;22.02;52.48;100783.63;106751;1259;25514;-51
2023/11/03 11:08:39;;;;;;;6.50;3.80;;;;;;;22.00;52.52;100774.39;106849;1259;25363;-52
2023/11/03 11:11:10;;;;;;;6.90;3.60;;;;;;;21.98;52.40;100766.92;106954;1269;24042;-50
2023/11/03 11:13:41;;;;;;;5.50;3.80;;;;;;;21.94;52.53;100758.02;107187;1254;25439;-51
2023/11/03 11:16:10;;;;;;;6.20;3.50;;;;;;;21.92;52.61;100756.96;106949;1266;24269;-51
2023/11/03 11:18:46;;;;;;;12.30;4.00;;;;;;;21.86;52.62;100755.40;106850;1251;25265;-50